sensor_id;sensor_type;location;lat;lon;timestamp;temperature;humidity
6940;DHT22;3509;48.510;9.076;2022-09-09T00:01:08;10.30;99.90
6940;DHT22;3509;48.510;9.076;2022-09-09T00:03:50;10.20;99.90
6940;DHT22;3509;48.510;9.076;2022-09-09T00:06:27;10.20;99.90
6940;DHT22;3509;48.510;9.076;2022-09-09T00:11:41;10.30;99.90
6940;DHT22;3509;48.510;9.076;2022-09-09T00:14:18;10.40;99.90
6940;DHT22;3509;48.510;9.076;2022-09-09T00:16:53;10.30;99.90
6940;DHT22;3509;48.510;9.076;2022-09-09T00:19:28;10.40;99.90
6940;DHT22;3509;48.510;9.076;2022-09-09T00:22:18;10.50;99.90
6940;DHT22;3509;48.510;9.076;2022-09-09T00:24:52;10.40;99.90
6940;DHT22;3509;48.510;9.076;2022-09-09T00:30:12;10.40;99.90
6940;DHT22;3509;48.510;9.076;2022-09-09T00:32:39;10.50;99.90
6940;DHT22;3509;48.510;9.076;2022-09-09T00:37:41;10.50;99.90
6940;DHT22;3509;48.510;9.076;2022-09-09T00:40:35;10.50;99.90
6940;DHT22;3509;48.510;9.076;2022-09-09T00:43:06;10.60;99.90
6940;DHT22;3509;48.510;9.076;2022-09-09T01:00:38;10.40;99.90
6940;DHT22;3509;48.510;9.076;2022-09-09T01:03:05;10.50;99.90
6940;DHT22;3509;48.510;9.076;2022-09-09T01:05:37;10.40;99.90
6940;DHT22;3509;48.510;9.076;2022-09-09T01:08:16;10.40;99.90
6940;DHT22;3509;48.510;9.076;2022-09-09T01:13:22;10.30;99.90
6940;DHT22;3509;48.510;9.076;2022-09-09T01:15:49;10.30;99.90
6940;DHT22;3509;48.510;9.076;2022-09-09T01:18:17;10.30;99.90
6940;DHT22;3509;48.510;9.076;2022-09-09T01:21:06;10.30;99.90
6940;DHT22;3509;48.510;9.076;2022-09-09T01:26:18;10.30;99.90
6940;DHT22;3509;48.510;9.076;2022-09-09T01:28:47;10.30;99.90
6940;DHT22;3509;48.510;9.076;2022-09-09T01:31:21;10.40;99.90
6940;DHT22;3509;48.510;9.076;2022-09-09T01:33:48;10.20;99.90
6940;DHT22;3509;48.510;9.076;2022-09-09T01:36:20;10.30;99.90
6940;DHT22;3509;48.510;9.076;2022-09-09T01:38:48;10.20;99.90
6940;DHT22;3509;48.510;9.076;2022-09-09T01:41:13;10.20;99.90
6940;DHT22;3509;48.510;9.076;2022-09-09T01:43:39;10.20;99.90
6940;DHT22;3509;48.510;9.076;2022-09-09T01:46:05;10.10;99.90
6940;DHT22;3509;48.510;9.076;2022-09-09T01:48:31;10.00;99.90
6940;DHT22;3509;48.510;9.076;2022-09-09T01:50:57;10.00;99.90
6940;DHT22;3509;48.510;9.076;2022-09-09T01:53:23;10.00;99.90
6940;DHT22;3509;48.510;9.076;2022-09-09T02:01:23;9.90;99.90
6940;DHT22;3509;48.510;9.076;2022-09-09T02:03:53;10.00;99.90
6940;DHT22;3509;48.510;9.076;2022-09-09T02:06:30;9.90;99.90
6940;DHT22;3509;48.510;9.076;2022-09-09T02:09:02;9.90;99.90
6940;DHT22;3509;48.510;9.076;2022-09-09T02:11:29;9.90;99.90
6940;DHT22;3509;48.510;9.076;2022-09-09T02:14:02;9.90;99.90
6940;DHT22;3509;48.510;9.076;2022-09-09T02:16:37;9.90;99.90
6940;DHT22;3509;48.510;9.076;2022-09-09T02:22:24;10.00;99.90
6940;DHT22;3509;48.510;9.076;2022-09-09T02:24:53;10.10;99.90
6940;DHT22;3509;48.510;9.076;2022-09-09T02:27:22;10.00;99.90
6940;DHT22;3509;48.510;9.076;2022-09-09T02:29:49;10.10;99.90
6940;DHT22;3509;48.510;9.076;2022-09-09T02:32:19;10.20;99.90
6940;DHT22;3509;48.510;9.076;2022-09-09T02:34:53;10.30;99.90
6940;DHT22;3509;48.510;9.076;2022-09-09T02:37:24;10.30;99.90
6940;DHT22;3509;48.510;9.076;2022-09-09T02:39:54;10.50;99.90
6940;DHT22;3509;48.510;9.076;2022-09-09T02:42:20;10.50;99.90
6940;DHT22;3509;48.510;9.076;2022-09-09T02:44:46;10.50;99.90
6940;DHT22;3509;48.510;9.076;2022-09-09T02:47:35;10.60;99.90
6940;DHT22;3509;48.510;9.076;2022-09-09T02:50:19;10.50;99.90
6940;DHT22;3509;48.510;9.076;2022-09-09T02:55:43;10.70;99.90
6940;DHT22;3509;48.510;9.076;2022-09-09T02:58:13;10.80;99.90
6940;DHT22;3509;48.510;9.076;2022-09-09T03:00:43;10.70;99.90
6940;DHT22;3509;48.510;9.076;2022-09-09T03:03:09;10.80;99.90
6940;DHT22;3509;48.510;9.076;2022-09-09T03:05:35;10.90;99.90
6940;DHT22;3509;48.510;9.076;2022-09-09T03:08:01;10.70;99.90
6940;DHT22;3509;48.510;9.076;2022-09-09T03:10:27;10.70;99.90
6940;DHT22;3509;48.510;9.076;2022-09-09T03:12:53;10.80;99.90
6940;DHT22;3509;48.510;9.076;2022-09-09T03:15:20;10.90;99.90
6940;DHT22;3509;48.510;9.076;2022-09-09T03:17:46;10.80;99.90
6940;DHT22;3509;48.510;9.076;2022-09-09T03:20:12;10.90;99.90
6940;DHT22;3509;48.510;9.076;2022-09-09T03:22:38;10.80;99.90
6940;DHT22;3509;48.510;9.076;2022-09-09T03:25:04;10.70;99.90
6940;DHT22;3509;48.510;9.076;2022-09-09T03:27:31;10.70;99.90
6940;DHT22;3509;48.510;9.076;2022-09-09T03:29:56;10.70;99.90
6940;DHT22;3509;48.510;9.076;2022-09-09T03:32:23;10.90;99.90
6940;DHT22;3509;48.510;9.076;2022-09-09T03:34:51;11.00;99.90
6940;DHT22;3509;48.510;9.076;2022-09-09T03:37:18;11.10;99.90
6940;DHT22;3509;48.510;9.076;2022-09-09T03:39:44;11.10;99.90
6940;DHT22;3509;48.510;9.076;2022-09-09T03:42:12;11.20;99.90
6940;DHT22;3509;48.510;9.076;2022-09-09T03:44:39;11.10;99.90
6940;DHT22;3509;48.510;9.076;2022-09-09T03:47:06;11.20;99.90
6940;DHT22;3509;48.510;9.076;2022-09-09T03:49:32;11.20;99.90
6940;DHT22;3509;48.510;9.076;2022-09-09T03:51:57;11.10;99.90
6940;DHT22;3509;48.510;9.076;2022-09-09T03:54:25;11.10;99.90
6940;DHT22;3509;48.510;9.076;2022-09-09T03:56:50;11.10;99.90
6940;DHT22;3509;48.510;9.076;2022-09-09T03:59:16;11.00;99.90
6940;DHT22;3509;48.510;9.076;2022-09-09T04:01:42;10.90;99.90
6940;DHT22;3509;48.510;9.076;2022-09-09T04:04:08;10.80;99.90
6940;DHT22;3509;48.510;9.076;2022-09-09T04:06:35;10.80;99.90
6940;DHT22;3509;48.510;9.076;2022-09-09T04:09:00;10.60;99.90
6940;DHT22;3509;48.510;9.076;2022-09-09T04:11:28;10.60;99.90
6940;DHT22;3509;48.510;9.076;2022-09-09T04:13:54;10.50;99.90
6940;DHT22;3509;48.510;9.076;2022-09-09T04:16:20;10.60;99.90
6940;DHT22;3509;48.510;9.076;2022-09-09T04:18:45;10.50;99.90
6940;DHT22;3509;48.510;9.076;2022-09-09T04:21:12;10.50;99.90
6940;DHT22;3509;48.510;9.076;2022-09-09T04:23:38;10.50;99.90
6940;DHT22;3509;48.510;9.076;2022-09-09T04:26:05;10.40;99.90
6940;DHT22;3509;48.510;9.076;2022-09-09T04:28:32;10.40;99.90
6940;DHT22;3509;48.510;9.076;2022-09-09T04:31:07;10.50;99.90
6940;DHT22;3509;48.510;9.076;2022-09-09T04:33:34;10.50;99.90
6940;DHT22;3509;48.510;9.076;2022-09-09T04:36:00;10.50;99.90
6940;DHT22;3509;48.510;9.076;2022-09-09T04:38:26;10.50;99.90
6940;DHT22;3509;48.510;9.076;2022-09-09T04:40:52;10.50;99.90
6940;DHT22;3509;48.510;9.076;2022-09-09T04:43:19;10.60;99.90
6940;DHT22;3509;48.510;9.076;2022-09-09T04:45:50;10.70;99.90
6940;DHT22;3509;48.510;9.076;2022-09-09T04:48:19;10.80;99.90
6940;DHT22;3509;48.510;9.076;2022-09-09T04:50:58;10.80;99.90
6940;DHT22;3509;48.510;9.076;2022-09-09T04:53:25;10.80;99.90
6940;DHT22;3509;48.510;9.076;2022-09-09T04:55:52;10.80;99.90
6940;DHT22;3509;48.510;9.076;2022-09-09T04:58:18;10.70;99.90
6940;DHT22;3509;48.510;9.076;2022-09-09T05:00:44;10.70;99.90
6940;DHT22;3509;48.510;9.076;2022-09-09T05:03:09;10.60;99.90
6940;DHT22;3509;48.510;9.076;2022-09-09T05:05:35;10.60;99.90
6940;DHT22;3509;48.510;9.076;2022-09-09T05:08:05;10.50;99.90
6940;DHT22;3509;48.510;9.076;2022-09-09T05:10:32;10.60;99.90
6940;DHT22;3509;48.510;9.076;2022-09-09T05:12:58;10.60;99.90
6940;DHT22;3509;48.510;9.076;2022-09-09T05:15:24;10.70;99.90
6940;DHT22;3509;48.510;9.076;2022-09-09T05:17:49;10.70;99.90
6940;DHT22;3509;48.510;9.076;2022-09-09T05:20:17;10.80;99.90
6940;DHT22;3509;48.510;9.076;2022-09-09T05:22:44;10.90;99.90
6940;DHT22;3509;48.510;9.076;2022-09-09T05:25:09;10.90;99.90
6940;DHT22;3509;48.510;9.076;2022-09-09T05:27:35;10.90;99.90
6940;DHT22;3509;48.510;9.076;2022-09-09T05:30:01;10.90;99.90
6940;DHT22;3509;48.510;9.076;2022-09-09T05:32:26;11.00;99.90
6940;DHT22;3509;48.510;9.076;2022-09-09T05:34:53;11.10;99.90
6940;DHT22;3509;48.510;9.076;2022-09-09T05:37:19;11.20;99.90
6940;DHT22;3509;48.510;9.076;2022-09-09T05:39:44;11.30;99.90
6940;DHT22;3509;48.510;9.076;2022-09-09T05:42:10;11.40;99.90
6940;DHT22;3509;48.510;9.076;2022-09-09T05:44:36;11.50;99.90
6940;DHT22;3509;48.510;9.076;2022-09-09T05:47:02;11.60;99.90
6940;DHT22;3509;48.510;9.076;2022-09-09T05:49:28;11.60;99.90
6940;DHT22;3509;48.510;9.076;2022-09-09T05:51:54;11.70;99.90
6940;DHT22;3509;48.510;9.076;2022-09-09T05:54:19;11.80;99.90
6940;DHT22;3509;48.510;9.076;2022-09-09T05:56:45;11.80;99.90
6940;DHT22;3509;48.510;9.076;2022-09-09T05:59:13;11.90;99.90
6940;DHT22;3509;48.510;9.076;2022-09-09T06:01:40;12.20;99.90
6940;DHT22;3509;48.510;9.076;2022-09-09T06:04:06;12.40;99.90
6940;DHT22;3509;48.510;9.076;2022-09-09T06:06:36;12.50;99.90
6940;DHT22;3509;48.510;9.076;2022-09-09T06:09:05;12.60;99.90
6940;DHT22;3509;48.510;9.076;2022-09-09T06:11:32;12.70;99.90
6940;DHT22;3509;48.510;9.076;2022-09-09T06:13:59;12.80;99.90
6940;DHT22;3509;48.510;9.076;2022-09-09T06:16:26;12.90;99.90
6940;DHT22;3509;48.510;9.076;2022-09-09T06:18:53;13.10;99.90
6940;DHT22;3509;48.510;9.076;2022-09-09T06:21:25;13.20;99.90
6940;DHT22;3509;48.510;9.076;2022-09-09T06:23:51;13.30;99.90
6940;DHT22;3509;48.510;9.076;2022-09-09T06:26:23;13.50;99.90
6940;DHT22;3509;48.510;9.076;2022-09-09T06:28:52;13.80;99.90
6940;DHT22;3509;48.510;9.076;2022-09-09T06:31:19;14.00;99.90
6940;DHT22;3509;48.510;9.076;2022-09-09T06:33:51;14.40;99.90
6940;DHT22;3509;48.510;9.076;2022-09-09T06:36:17;15.40;99.90
6940;DHT22;3509;48.510;9.076;2022-09-09T06:38:44;15.50;99.90
6940;DHT22;3509;48.510;9.076;2022-09-09T06:41:12;15.50;99.90
6940;DHT22;3509;48.510;9.076;2022-09-09T06:43:38;15.50;99.90
6940;DHT22;3509;48.510;9.076;2022-09-09T06:46:05;15.60;99.90
6940;DHT22;3509;48.510;9.076;2022-09-09T06:48:31;15.80;99.90
6940;DHT22;3509;48.510;9.076;2022-09-09T06:53:38;16.20;99.90
6940;DHT22;3509;48.510;9.076;2022-09-09T06:58:39;16.60;99.90
6940;DHT22;3509;48.510;9.076;2022-09-09T07:01:09;16.80;99.90
6940;DHT22;3509;48.510;9.076;2022-09-09T07:03:35;17.30;99.90
6940;DHT22;3509;48.510;9.076;2022-09-09T07:06:01;17.80;99.90
6940;DHT22;3509;48.510;9.076;2022-09-09T07:08:27;18.10;99.90
6940;DHT22;3509;48.510;9.076;2022-09-09T07:10:54;18.20;99.90
6940;DHT22;3509;48.510;9.076;2022-09-09T07:13:26;18.20;99.90
6940;DHT22;3509;48.510;9.076;2022-09-09T07:15:52;18.10;99.90
6940;DHT22;3509;48.510;9.076;2022-09-09T07:18:19;17.90;99.90
6940;DHT22;3509;48.510;9.076;2022-09-09T07:20:55;18.10;99.90
6940;DHT22;3509;48.510;9.076;2022-09-09T07:23:21;18.30;99.90
6940;DHT22;3509;48.510;9.076;2022-09-09T07:25:47;18.60;99.90
6940;DHT22;3509;48.510;9.076;2022-09-09T07:28:13;18.80;99.90
6940;DHT22;3509;48.510;9.076;2022-09-09T07:30:39;19.30;99.90
6940;DHT22;3509;48.510;9.076;2022-09-09T07:33:06;20.00;99.90
6940;DHT22;3509;48.510;9.076;2022-09-09T07:35:32;21.00;99.30
6940;DHT22;3509;48.510;9.076;2022-09-09T07:38:00;21.90;97.00
6940;DHT22;3509;48.510;9.076;2022-09-09T07:40:25;21.80;96.00
6940;DHT22;3509;48.510;9.076;2022-09-09T07:42:51;21.50;97.00
6940;DHT22;3509;48.510;9.076;2022-09-09T07:45:17;21.20;97.10
6940;DHT22;3509;48.510;9.076;2022-09-09T07:47:42;20.90;98.00
6940;DHT22;3509;48.510;9.076;2022-09-09T07:50:09;20.60;98.90
6940;DHT22;3509;48.510;9.076;2022-09-09T07:52:38;20.30;99.30
6940;DHT22;3509;48.510;9.076;2022-09-09T07:55:04;20.10;99.80
6940;DHT22;3509;48.510;9.076;2022-09-09T07:57:31;20.10;99.90
6940;DHT22;3509;48.510;9.076;2022-09-09T07:59:57;20.10;99.90
6940;DHT22;3509;48.510;9.076;2022-09-09T08:02:24;20.40;99.90
6940;DHT22;3509;48.510;9.076;2022-09-09T08:04:51;20.80;99.80
6940;DHT22;3509;48.510;9.076;2022-09-09T08:07:17;20.80;99.30
6940;DHT22;3509;48.510;9.076;2022-09-09T08:09:43;21.00;99.20
6940;DHT22;3509;48.510;9.076;2022-09-09T08:12:09;20.80;99.30
6940;DHT22;3509;48.510;9.076;2022-09-09T08:14:36;20.60;99.70
6940;DHT22;3509;48.510;9.076;2022-09-09T08:17:02;20.50;99.90
6940;DHT22;3509;48.510;9.076;2022-09-09T08:19:28;20.60;99.60
6940;DHT22;3509;48.510;9.076;2022-09-09T08:21:55;20.90;99.90
6940;DHT22;3509;48.510;9.076;2022-09-09T08:24:21;21.60;98.50
6940;DHT22;3509;48.510;9.076;2022-09-09T08:26:49;22.30;97.10
6940;DHT22;3509;48.510;9.076;2022-09-09T08:29:15;23.40;95.30
6940;DHT22;3509;48.510;9.076;2022-09-09T08:31:51;23.70;94.70
6940;DHT22;3509;48.510;9.076;2022-09-09T08:34:17;24.30;94.20
6940;DHT22;3509;48.510;9.076;2022-09-09T08:36:46;25.20;91.40
6940;DHT22;3509;48.510;9.076;2022-09-09T08:39:14;25.40;89.80
6940;DHT22;3509;48.510;9.076;2022-09-09T08:48:36;25.70;81.10
6940;DHT22;3509;48.510;9.076;2022-09-09T08:51:06;25.60;83.50
6940;DHT22;3509;48.510;9.076;2022-09-09T08:53:40;24.80;84.40
6940;DHT22;3509;48.510;9.076;2022-09-09T08:56:14;24.70;85.30
6940;DHT22;3509;48.510;9.076;2022-09-09T08:58:49;24.20;86.90
6940;DHT22;3509;48.510;9.076;2022-09-09T09:09:35;25.00;84.70
6940;DHT22;3509;48.510;9.076;2022-09-09T09:12:13;25.10;80.40
6940;DHT22;3509;48.510;9.076;2022-09-09T09:14:40;25.90;79.10
6940;DHT22;3509;48.510;9.076;2022-09-09T09:17:16;27.60;74.20
6940;DHT22;3509;48.510;9.076;2022-09-09T09:19:43;28.90;68.80
6940;DHT22;3509;48.510;9.076;2022-09-09T09:25:17;29.40;60.90
6940;DHT22;3509;48.510;9.076;2022-09-09T09:30:31;29.80;58.70
6940;DHT22;3509;48.510;9.076;2022-09-09T09:35:30;30.50;55.50
6940;DHT22;3509;48.510;9.076;2022-09-09T09:37:55;30.50;55.50
6940;DHT22;3509;48.510;9.076;2022-09-09T09:40:22;30.50;54.60
6940;DHT22;3509;48.510;9.076;2022-09-09T09:42:53;30.40;54.70
6940;DHT22;3509;48.510;9.076;2022-09-09T09:45:42;30.40;53.60
6940;DHT22;3509;48.510;9.076;2022-09-09T09:48:11;30.50;53.10
6940;DHT22;3509;48.510;9.076;2022-09-09T09:51:08;29.90;53.10
6940;DHT22;3509;48.510;9.076;2022-09-09T09:53:37;30.00;52.70
6940;DHT22;3509;48.510;9.076;2022-09-09T09:56:07;30.60;52.50
6940;DHT22;3509;48.510;9.076;2022-09-09T10:01:28;31.70;47.70
6940;DHT22;3509;48.510;9.076;2022-09-09T10:04:18;30.20;47.50
6940;DHT22;3509;48.510;9.076;2022-09-09T10:06:46;28.70;50.10
6940;DHT22;3509;48.510;9.076;2022-09-09T10:09:26;27.00;53.90
6940;DHT22;3509;48.510;9.076;2022-09-09T10:12:27;25.80;58.10
6940;DHT22;3509;48.510;9.076;2022-09-09T10:15:00;25.00;59.80
6940;DHT22;3509;48.510;9.076;2022-09-09T10:20:18;26.30;58.30
6940;DHT22;3509;48.510;9.076;2022-09-09T10:22:51;27.40;57.60
6940;DHT22;3509;48.510;9.076;2022-09-09T10:28:27;29.60;54.00
6940;DHT22;3509;48.510;9.076;2022-09-09T10:31:17;30.40;53.50
6940;DHT22;3509;48.510;9.076;2022-09-09T10:34:02;30.80;48.90
6940;DHT22;3509;48.510;9.076;2022-09-09T10:36:32;30.70;47.90
6940;DHT22;3509;48.510;9.076;2022-09-09T10:38:59;30.40;48.30
6940;DHT22;3509;48.510;9.076;2022-09-09T10:41:52;30.20;48.60
6940;DHT22;3509;48.510;9.076;2022-09-09T10:44:24;30.50;48.60
6940;DHT22;3509;48.510;9.076;2022-09-09T10:47:12;30.80;45.80
6940;DHT22;3509;48.510;9.076;2022-09-09T10:52:51;29.90;44.90
6940;DHT22;3509;48.510;9.076;2022-09-09T10:55:20;30.10;46.30
6940;DHT22;3509;48.510;9.076;2022-09-09T10:57:52;30.10;47.50
6940;DHT22;3509;48.510;9.076;2022-09-09T11:03:18;30.20;48.40
6940;DHT22;3509;48.510;9.076;2022-09-09T11:06:06;29.90;47.10
6940;DHT22;3509;48.510;9.076;2022-09-09T11:08:35;29.80;47.70
6940;DHT22;3509;48.510;9.076;2022-09-09T11:11:06;29.90;47.20
6940;DHT22;3509;48.510;9.076;2022-09-09T11:16:22;28.90;48.10
6940;DHT22;3509;48.510;9.076;2022-09-09T11:18:53;28.50;48.50
6940;DHT22;3509;48.510;9.076;2022-09-09T11:21:31;28.10;50.10
6940;DHT22;3509;48.510;9.076;2022-09-09T11:24:03;27.00;53.00
6940;DHT22;3509;48.510;9.076;2022-09-09T11:26:44;25.80;56.20
6940;DHT22;3509;48.510;9.076;2022-09-09T11:32:36;24.20;59.70
6940;DHT22;3509;48.510;9.076;2022-09-09T11:35:32;23.80;59.60
6940;DHT22;3509;48.510;9.076;2022-09-09T11:40:28;23.40;58.10
6940;DHT22;3509;48.510;9.076;2022-09-09T11:43:15;24.10;59.90
6940;DHT22;3509;48.510;9.076;2022-09-09T11:45:43;25.40;56.00
6940;DHT22;3509;48.510;9.076;2022-09-09T11:48:35;26.30;53.30
6940;DHT22;3509;48.510;9.076;2022-09-09T11:53:28;26.70;51.50
6940;DHT22;3509;48.510;9.076;2022-09-09T11:56:30;27.00;51.60
6940;DHT22;3509;48.510;9.076;2022-09-09T11:59:16;27.70;48.70
6940;DHT22;3509;48.510;9.076;2022-09-09T12:01:46;27.30;50.30
6940;DHT22;3509;48.510;9.076;2022-09-09T12:09:45;27.30;49.90
6940;DHT22;3509;48.510;9.076;2022-09-09T12:17:25;26.70;51.60
6940;DHT22;3509;48.510;9.076;2022-09-09T12:25:39;25.40;53.10
6940;DHT22;3509;48.510;9.076;2022-09-09T12:28:17;24.70;55.20
6940;DHT22;3509;48.510;9.076;2022-09-09T12:30:59;24.50;56.30
6940;DHT22;3509;48.510;9.076;2022-09-09T12:33:35;24.30;56.80
6940;DHT22;3509;48.510;9.076;2022-09-09T12:36:01;23.40;57.90
6940;DHT22;3509;48.510;9.076;2022-09-09T12:38:36;22.90;60.20
6940;DHT22;3509;48.510;9.076;2022-09-09T12:41:03;23.00;60.50
6940;DHT22;3509;48.510;9.076;2022-09-09T12:43:29;22.70;59.60
6940;DHT22;3509;48.510;9.076;2022-09-09T12:45:59;22.40;61.00
6940;DHT22;3509;48.510;9.076;2022-09-09T12:48:36;22.40;61.10
6940;DHT22;3509;48.510;9.076;2022-09-09T12:51:04;22.40;62.00
6940;DHT22;3509;48.510;9.076;2022-09-09T12:53:36;22.20;61.30
6940;DHT22;3509;48.510;9.076;2022-09-09T12:56:08;22.20;62.20
6940;DHT22;3509;48.510;9.076;2022-09-09T12:58:46;22.70;61.90
6940;DHT22;3509;48.510;9.076;2022-09-09T13:01:38;23.20;58.30
6940;DHT22;3509;48.510;9.076;2022-09-09T13:04:20;22.90;56.80
6940;DHT22;3509;48.510;9.076;2022-09-09T13:06:45;23.00;58.70
6940;DHT22;3509;48.510;9.076;2022-09-09T13:09:11;23.30;58.50
6940;DHT22;3509;48.510;9.076;2022-09-09T13:11:40;23.40;57.20
6940;DHT22;3509;48.510;9.076;2022-09-09T13:14:19;23.50;58.00
6940;DHT22;3509;48.510;9.076;2022-09-09T13:17:01;23.30;58.00
6940;DHT22;3509;48.510;9.076;2022-09-09T13:19:33;23.30;60.20
6940;DHT22;3509;48.510;9.076;2022-09-09T13:22:00;23.20;60.70
6940;DHT22;3509;48.510;9.076;2022-09-09T13:26:57;22.90;59.60
6940;DHT22;3509;48.510;9.076;2022-09-09T13:29:23;22.60;60.40
6940;DHT22;3509;48.510;9.076;2022-09-09T13:31:50;22.40;61.40
6940;DHT22;3509;48.510;9.076;2022-09-09T13:34:30;22.30;62.20
6940;DHT22;3509;48.510;9.076;2022-09-09T13:37:40;22.00;61.00
6940;DHT22;3509;48.510;9.076;2022-09-09T13:40:17;22.00;62.70
6940;DHT22;3509;48.510;9.076;2022-09-09T13:42:44;22.20;62.30
6940;DHT22;3509;48.510;9.076;2022-09-09T13:45:21;22.60;61.80
6940;DHT22;3509;48.510;9.076;2022-09-09T13:47:47;22.60;59.40
6940;DHT22;3509;48.510;9.076;2022-09-09T13:50:26;22.20;59.80
6940;DHT22;3509;48.510;9.076;2022-09-09T13:52:55;22.00;62.40
6940;DHT22;3509;48.510;9.076;2022-09-09T13:55:22;21.90;61.90
6940;DHT22;3509;48.510;9.076;2022-09-09T13:57:52;21.60;60.80
6940;DHT22;3509;48.510;9.076;2022-09-09T14:00:18;21.50;61.40
6940;DHT22;3509;48.510;9.076;2022-09-09T14:02:44;21.40;60.50
6940;DHT22;3509;48.510;9.076;2022-09-09T14:05:10;21.40;60.30
6940;DHT22;3509;48.510;9.076;2022-09-09T14:07:37;21.40;62.20
6940;DHT22;3509;48.510;9.076;2022-09-09T14:10:04;21.70;61.50
6940;DHT22;3509;48.510;9.076;2022-09-09T14:12:30;21.90;60.30
6940;DHT22;3509;48.510;9.076;2022-09-09T14:14:55;21.90;60.40
6940;DHT22;3509;48.510;9.076;2022-09-09T14:17:21;22.00;60.20
6940;DHT22;3509;48.510;9.076;2022-09-09T14:19:47;22.10;61.80
6940;DHT22;3509;48.510;9.076;2022-09-09T14:22:13;22.10;61.10
6940;DHT22;3509;48.510;9.076;2022-09-09T14:24:39;22.20;60.70
6940;DHT22;3509;48.510;9.076;2022-09-09T14:27:04;22.30;59.30
6940;DHT22;3509;48.510;9.076;2022-09-09T14:29:30;22.30;58.50
6940;DHT22;3509;48.510;9.076;2022-09-09T14:31:56;22.40;59.70
6940;DHT22;3509;48.510;9.076;2022-09-09T14:34:22;22.30;59.20
6940;DHT22;3509;48.510;9.076;2022-09-09T14:36:47;22.20;59.30
6940;DHT22;3509;48.510;9.076;2022-09-09T14:39:13;22.20;58.80
6940;DHT22;3509;48.510;9.076;2022-09-09T14:41:39;22.20;59.10
6940;DHT22;3509;48.510;9.076;2022-09-09T14:44:04;22.20;59.50
6940;DHT22;3509;48.510;9.076;2022-09-09T14:46:30;22.10;59.70
6940;DHT22;3509;48.510;9.076;2022-09-09T14:48:56;22.20;59.10
6940;DHT22;3509;48.510;9.076;2022-09-09T14:51:23;22.30;58.60
6940;DHT22;3509;48.510;9.076;2022-09-09T14:53:55;22.20;58.90
6940;DHT22;3509;48.510;9.076;2022-09-09T14:56:27;22.20;59.80
6940;DHT22;3509;48.510;9.076;2022-09-09T14:58:55;22.10;59.60
6940;DHT22;3509;48.510;9.076;2022-09-09T15:01:22;22.10;59.80
6940;DHT22;3509;48.510;9.076;2022-09-09T15:03:50;22.00;60.30
6940;DHT22;3509;48.510;9.076;2022-09-09T15:06:16;21.90;60.90
6940;DHT22;3509;48.510;9.076;2022-09-09T15:08:44;21.80;60.20
6940;DHT22;3509;48.510;9.076;2022-09-09T15:11:11;21.80;61.50
6940;DHT22;3509;48.510;9.076;2022-09-09T15:13:38;21.80;61.30
6940;DHT22;3509;48.510;9.076;2022-09-09T15:16:09;21.90;58.00
6940;DHT22;3509;48.510;9.076;2022-09-09T15:18:35;21.90;58.40
6940;DHT22;3509;48.510;9.076;2022-09-09T15:21:02;21.90;57.10
6940;DHT22;3509;48.510;9.076;2022-09-09T15:23:32;21.80;57.60
6940;DHT22;3509;48.510;9.076;2022-09-09T15:25:57;21.60;57.10
6940;DHT22;3509;48.510;9.076;2022-09-09T15:28:23;21.60;58.20
6940;DHT22;3509;48.510;9.076;2022-09-09T15:30:50;21.50;58.50
6940;DHT22;3509;48.510;9.076;2022-09-09T15:33:17;21.50;59.00
6940;DHT22;3509;48.510;9.076;2022-09-09T15:35:43;21.40;58.90
6940;DHT22;3509;48.510;9.076;2022-09-09T15:38:09;21.40;59.80
6940;DHT22;3509;48.510;9.076;2022-09-09T15:40:35;21.40;61.10
6940;DHT22;3509;48.510;9.076;2022-09-09T15:43:00;21.30;62.30
6940;DHT22;3509;48.510;9.076;2022-09-09T15:45:27;21.10;60.40
6940;DHT22;3509;48.510;9.076;2022-09-09T15:47:53;21.10;60.90
6940;DHT22;3509;48.510;9.076;2022-09-09T15:50:18;21.20;60.80
6940;DHT22;3509;48.510;9.076;2022-09-09T15:52:44;21.20;61.10
6940;DHT22;3509;48.510;9.076;2022-09-09T15:55:10;21.20;60.90
6940;DHT22;3509;48.510;9.076;2022-09-09T15:57:35;21.20;60.50
6940;DHT22;3509;48.510;9.076;2022-09-09T16:00:03;21.20;59.50
6940;DHT22;3509;48.510;9.076;2022-09-09T16:02:29;21.00;59.50
6940;DHT22;3509;48.510;9.076;2022-09-09T16:04:56;21.00;60.00
6940;DHT22;3509;48.510;9.076;2022-09-09T16:07:23;20.90;59.20
6940;DHT22;3509;48.510;9.076;2022-09-09T16:09:48;20.70;59.00
6940;DHT22;3509;48.510;9.076;2022-09-09T16:12:16;20.60;59.10
6940;DHT22;3509;48.510;9.076;2022-09-09T16:14:42;20.50;59.70
6940;DHT22;3509;48.510;9.076;2022-09-09T16:17:08;20.40;60.10
6940;DHT22;3509;48.510;9.076;2022-09-09T16:19:34;20.30;60.80
6940;DHT22;3509;48.510;9.076;2022-09-09T16:22:04;20.30;61.60
6940;DHT22;3509;48.510;9.076;2022-09-09T16:24:32;20.10;61.20
6940;DHT22;3509;48.510;9.076;2022-09-09T16:26:57;20.10;61.80
6940;DHT22;3509;48.510;9.076;2022-09-09T16:29:23;20.10;62.70
6940;DHT22;3509;48.510;9.076;2022-09-09T16:31:53;20.00;63.40
6940;DHT22;3509;48.510;9.076;2022-09-09T16:34:19;19.90;63.40
6940;DHT22;3509;48.510;9.076;2022-09-09T16:36:48;19.80;64.10
6940;DHT22;3509;48.510;9.076;2022-09-09T16:39:17;19.60;64.70
6940;DHT22;3509;48.510;9.076;2022-09-09T16:41:44;19.50;65.50
6940;DHT22;3509;48.510;9.076;2022-09-09T16:44:12;19.30;66.00
6940;DHT22;3509;48.510;9.076;2022-09-09T16:46:39;19.20;66.80
6940;DHT22;3509;48.510;9.076;2022-09-09T16:49:07;19.10;67.40
6940;DHT22;3509;48.510;9.076;2022-09-09T16:51:36;19.00;68.30
6940;DHT22;3509;48.510;9.076;2022-09-09T16:54:04;18.80;69.10
6940;DHT22;3509;48.510;9.076;2022-09-09T16:56:33;18.80;70.20
6940;DHT22;3509;48.510;9.076;2022-09-09T16:59:01;18.70;70.80
6940;DHT22;3509;48.510;9.076;2022-09-09T17:01:29;18.60;70.80
6940;DHT22;3509;48.510;9.076;2022-09-09T17:03:58;18.50;71.20
6940;DHT22;3509;48.510;9.076;2022-09-09T17:06:24;18.50;71.30
6940;DHT22;3509;48.510;9.076;2022-09-09T17:09:01;18.40;71.60
6940;DHT22;3509;48.510;9.076;2022-09-09T17:11:29;18.30;72.20
6940;DHT22;3509;48.510;9.076;2022-09-09T17:13:56;18.20;72.80
6940;DHT22;3509;48.510;9.076;2022-09-09T17:16:25;18.20;73.50
6940;DHT22;3509;48.510;9.076;2022-09-09T17:18:52;18.10;74.00
6940;DHT22;3509;48.510;9.076;2022-09-09T17:21:21;18.10;74.60
6940;DHT22;3509;48.510;9.076;2022-09-09T17:23:47;18.00;75.00
6940;DHT22;3509;48.510;9.076;2022-09-09T17:26:15;18.00;75.60
6940;DHT22;3509;48.510;9.076;2022-09-09T17:28:42;17.80;76.30
6940;DHT22;3509;48.510;9.076;2022-09-09T17:31:10;17.60;77.30
6940;DHT22;3509;48.510;9.076;2022-09-09T17:33:38;17.50;78.20
6940;DHT22;3509;48.510;9.076;2022-09-09T17:36:11;17.30;79.30
6940;DHT22;3509;48.510;9.076;2022-09-09T17:38:37;17.10;81.00
6940;DHT22;3509;48.510;9.076;2022-09-09T17:41:04;16.90;83.60
6940;DHT22;3509;48.510;9.076;2022-09-09T17:43:30;16.60;87.20
6940;DHT22;3509;48.510;9.076;2022-09-09T17:48:36;16.40;93.10
6940;DHT22;3509;48.510;9.076;2022-09-09T17:51:04;16.20;94.90
6940;DHT22;3509;48.510;9.076;2022-09-09T17:53:30;16.00;96.80
6940;DHT22;3509;48.510;9.076;2022-09-09T17:56:04;15.90;98.50
6940;DHT22;3509;48.510;9.076;2022-09-09T17:58:31;15.80;99.80
6940;DHT22;3509;48.510;9.076;2022-09-09T18:01:05;15.70;99.90
6940;DHT22;3509;48.510;9.076;2022-09-09T18:03:33;15.70;99.90
6940;DHT22;3509;48.510;9.076;2022-09-09T18:06:01;15.60;99.90
6940;DHT22;3509;48.510;9.076;2022-09-09T18:08:27;15.50;99.90
6940;DHT22;3509;48.510;9.076;2022-09-09T18:10:54;15.60;99.80
6940;DHT22;3509;48.510;9.076;2022-09-09T18:13:20;15.60;99.40